sensor_id;sensor_type;location;lat;lon;timestamp;P1;durP1;ratioP1;P2;durP2;ratioP2
48203;SDS011;33994;50.998;5.864;2023-06-24T00:02:41;12.00;;;7.13;;
48203;SDS011;33994;50.998;5.864;2023-06-24T00:05:44;11.15;;;7.10;;
48203;SDS011;33994;50.998;5.864;2023-06-24T00:08:47;11.15;;;7.35;;
48203;SDS011;33994;50.998;5.864;2023-06-24T00:11:51;11.35;;;6.97;;
48203;SDS011;33994;50.998;5.864;2023-06-24T00:14:55;12.55;;;6.95;;
48203;SDS011;33994;50.998;5.864;2023-06-24T00:17:59;9.93;;;6.85;;
48203;SDS011;33994;50.998;5.864;2023-06-24T00:21:04;10.30;;;7.47;;
48203;SDS011;33994;50.998;5.864;2023-06-24T00:24:07;10.85;;;7.85;;
48203;SDS011;33994;50.998;5.864;2023-06-24T00:27:10;10.57;;;8.10;;
48203;SDS011;33994;50.998;5.864;2023-06-24T00:30:13;11.23;;;8.05;;
48203;SDS011;33994;50.998;5.864;2023-06-24T00:33:17;11.90;;;7.60;;
48203;SDS011;33994;50.998;5.864;2023-06-24T00:36:20;11.55;;;8.40;;
48203;SDS011;33994;50.998;5.864;2023-06-24T00:39:24;11.90;;;8.43;;
48203;SDS011;33994;50.998;5.864;2023-06-24T00:42:27;13.93;;;8.20;;
48203;SDS011;33994;50.998;5.864;2023-06-24T00:45:30;9.38;;;7.90;;
48203;SDS011;33994;50.998;5.864;2023-06-24T00:48:35;13.20;;;8.00;;
48203;SDS011;33994;50.998;5.864;2023-06-24T00:51:38;15.05;;;8.52;;
48203;SDS011;33994;50.998;5.864;2023-06-24T00:54:41;12.65;;;7.72;;
48203;SDS011;33994;50.998;5.864;2023-06-24T00:57:44;10.68;;;7.68;;
48203;SDS011;33994;50.998;5.864;2023-06-24T01:00:48;13.02;;;8.60;;
48203;SDS011;33994;50.998;5.864;2023-06-24T01:03:55;14.13;;;8.18;;
48203;SDS011;33994;50.998;5.864;2023-06-24T01:06:58;12.07;;;8.20;;
48203;SDS011;33994;50.998;5.864;2023-06-24T01:10:01;11.40;;;8.00;;
48203;SDS011;33994;50.998;5.864;2023-06-24T01:13:04;12.93;;;9.00;;
48203;SDS011;33994;50.998;5.864;2023-06-24T01:16:10;15.10;;;9.38;;
48203;SDS011;33994;50.998;5.864;2023-06-24T01:19:33;11.57;;;8.65;;
48203;SDS011;33994;50.998;5.864;2023-06-24T01:23:06;14.90;;;8.88;;
48203;SDS011;33994;50.998;5.864;2023-06-24T01:26:44;12.35;;;8.60;;
48203;SDS011;33994;50.998;5.864;2023-06-24T01:30:29;10.25;;;7.68;;
48203;SDS011;33994;50.998;5.864;2023-06-24T01:33:46;12.55;;;8.18;;
48203;SDS011;33994;50.998;5.864;2023-06-24T01:36:55;11.93;;;8.43;;
48203;SDS011;33994;50.998;5.864;2023-06-24T01:40:07;16.52;;;9.60;;
48203;SDS011;33994;50.998;5.864;2023-06-24T01:43:14;12.07;;;8.85;;
48203;SDS011;33994;50.998;5.864;2023-06-24T01:46:19;16.40;;;10.13;;
48203;SDS011;33994;50.998;5.864;2023-06-24T01:49:28;16.75;;;9.55;;
48203;SDS011;33994;50.998;5.864;2023-06-24T01:52:33;12.13;;;8.73;;
48203;SDS011;33994;50.998;5.864;2023-06-24T01:55:38;15.73;;;9.77;;
48203;SDS011;33994;50.998;5.864;2023-06-24T01:58:44;17.27;;;9.95;;
48203;SDS011;33994;50.998;5.864;2023-06-24T02:01:49;15.85;;;9.63;;
48203;SDS011;33994;50.998;5.864;2023-06-24T02:04:55;13.40;;;8.73;;
48203;SDS011;33994;50.998;5.864;2023-06-24T02:08:00;13.10;;;8.80;;
48203;SDS011;33994;50.998;5.864;2023-06-24T02:11:05;15.05;;;9.95;;
48203;SDS011;33994;50.998;5.864;2023-06-24T02:14:11;17.50;;;9.73;;
48203;SDS011;33994;50.998;5.864;2023-06-24T02:17:16;15.30;;;9.38;;
48203;SDS011;33994;50.998;5.864;2023-06-24T02:20:22;19.13;;;11.40;;
48203;SDS011;33994;50.998;5.864;2023-06-24T02:23:26;18.98;;;11.45;;
48203;SDS011;33994;50.998;5.864;2023-06-24T02:26:31;14.00;;;10.68;;
48203;SDS011;33994;50.998;5.864;2023-06-24T02:29:34;19.00;;;11.35;;
48203;SDS011;33994;50.998;5.864;2023-06-24T02:32:40;17.95;;;10.73;;
48203;SDS011;33994;50.998;5.864;2023-06-24T02:35:44;15.25;;;9.85;;
48203;SDS011;33994;50.998;5.864;2023-06-24T02:38:47;15.05;;;10.32;;
48203;SDS011;33994;50.998;5.864;2023-06-24T02:41:51;12.75;;;8.90;;
48203;SDS011;33994;50.998;5.864;2023-06-24T02:44:54;14.63;;;10.00;;
48203;SDS011;33994;50.998;5.864;2023-06-24T02:47:57;14.55;;;10.43;;
48203;SDS011;33994;50.998;5.864;2023-06-24T02:51:03;15.68;;;10.43;;
48203;SDS011;33994;50.998;5.864;2023-06-24T02:54:07;14.27;;;9.27;;
48203;SDS011;33994;50.998;5.864;2023-06-24T02:57:11;15.05;;;9.32;;
48203;SDS011;33994;50.998;5.864;2023-06-24T03:00:15;11.30;;;8.18;;
48203;SDS011;33994;50.998;5.864;2023-06-24T03:03:19;13.50;;;8.90;;
48203;SDS011;33994;50.998;5.864;2023-06-24T03:06:24;12.95;;;9.15;;
48203;SDS011;33994;50.998;5.864;2023-06-24T03:09:28;12.85;;;8.30;;
48203;SDS011;33994;50.998;5.864;2023-06-24T03:12:37;13.80;;;8.02;;
48203;SDS011;33994;50.998;5.864;2023-06-24T03:15:40;13.48;;;9.07;;
48203;SDS011;33994;50.998;5.864;2023-06-24T03:18:43;12.98;;;9.10;;
48203;SDS011;33994;50.998;5.864;2023-06-24T03:21:48;14.50;;;8.88;;
48203;SDS011;33994;50.998;5.864;2023-06-24T03:24:51;15.77;;;9.18;;
48203;SDS011;33994;50.998;5.864;2023-06-24T03:27:54;12.00;;;9.60;;
48203;SDS011;33994;50.998;5.864;2023-06-24T03:30:57;14.27;;;9.27;;
48203;SDS011;33994;50.998;5.864;2023-06-24T03:34:00;13.68;;;9.25;;
48203;SDS011;33994;50.998;5.864;2023-06-24T03:37:05;13.05;;;9.00;;
48203;SDS011;33994;50.998;5.864;2023-06-24T03:40:08;14.23;;;9.70;;
48203;SDS011;33994;50.998;5.864;2023-06-24T03:43:12;13.88;;;9.20;;
48203;SDS011;33994;50.998;5.864;2023-06-24T03:46:15;13.75;;;9.50;;
48203;SDS011;33994;50.998;5.864;2023-06-24T03:49:18;15.30;;;9.32;;
48203;SDS011;33994;50.998;5.864;2023-06-24T03:52:23;13.63;;;9.20;;
48203;SDS011;33994;50.998;5.864;2023-06-24T03:55:26;13.00;;;9.07;;
48203;SDS011;33994;50.998;5.864;2023-06-24T03:58:29;14.00;;;9.57;;
48203;SDS011;33994;50.998;5.864;2023-06-24T04:01:32;14.50;;;10.45;;
48203;SDS011;33994;50.998;5.864;2023-06-24T04:04:36;13.90;;;10.00;;
48203;SDS011;33994;50.998;5.864;2023-06-24T04:07:40;17.15;;;11.23;;
48203;SDS011;33994;50.998;5.864;2023-06-24T04:10:43;20.33;;;11.73;;
48203;SDS011;33994;50.998;5.864;2023-06-24T04:13:47;20.35;;;12.35;;
48203;SDS011;33994;50.998;5.864;2023-06-24T04:16:50;13.40;;;9.63;;
48203;SDS011;33994;50.998;5.864;2023-06-24T04:19:53;14.27;;;10.40;;
48203;SDS011;33994;50.998;5.864;2023-06-24T04:22:57;14.73;;;10.15;;
48203;SDS011;33994;50.998;5.864;2023-06-24T04:26:01;14.90;;;10.68;;
48203;SDS011;33994;50.998;5.864;2023-06-24T04:29:04;14.52;;;9.85;;
48203;SDS011;33994;50.998;5.864;2023-06-24T04:32:07;21.73;;;11.90;;
48203;SDS011;33994;50.998;5.864;2023-06-24T04:35:10;13.75;;;11.00;;
48203;SDS011;33994;50.998;5.864;2023-06-24T04:38:14;12.40;;;9.63;;
48203;SDS011;33994;50.998;5.864;2023-06-24T04:41:18;17.17;;;11.20;;
48203;SDS011;33994;50.998;5.864;2023-06-24T04:44:21;17.13;;;11.82;;
48203;SDS011;33994;50.998;5.864;2023-06-24T04:47:24;17.58;;;11.38;;
48203;SDS011;33994;50.998;5.864;2023-06-24T04:50:27;18.45;;;11.02;;
48203;SDS011;33994;50.998;5.864;2023-06-24T04:53:32;15.95;;;11.20;;
48203;SDS011;33994;50.998;5.864;2023-06-24T04:56:35;15.60;;;11.43;;
48203;SDS011;33994;50.998;5.864;2023-06-24T04:59:38;20.42;;;11.23;;
48203;SDS011;33994;50.998;5.864;2023-06-24T05:02:41;15.50;;;10.73;;
48203;SDS011;33994;50.998;5.864;2023-06-24T05:05:45;21.95;;;11.48;;
48203;SDS011;33994;50.998;5.864;2023-06-24T05:08:49;16.33;;;10.43;;
48203;SDS011;33994;50.998;5.864;2023-06-24T05:11:52;16.45;;;10.68;;
48203;SDS011;33994;50.998;5.864;2023-06-24T05:14:55;19.15;;;11.30;;
48203;SDS011;33994;50.998;5.864;2023-06-24T05:17:58;17.13;;;10.90;;
48203;SDS011;33994;50.998;5.864;2023-06-24T05:21:02;15.88;;;10.57;;
48203;SDS011;33994;50.998;5.864;2023-06-24T05:24:06;17.40;;;11.23;;
48203;SDS011;33994;50.998;5.864;2023-06-24T05:27:10;20.83;;;11.43;;
48203;SDS011;33994;50.998;5.864;2023-06-24T05:30:13;16.40;;;10.55;;
48203;SDS011;33994;50.998;5.864;2023-06-24T05:33:16;18.33;;;10.20;;
48203;SDS011;33994;50.998;5.864;2023-06-24T05:36:19;17.13;;;10.88;;
48203;SDS011;33994;50.998;5.864;2023-06-24T05:39:24;26.83;;;11.73;;
48203;SDS011;33994;50.998;5.864;2023-06-24T05:42:28;15.13;;;9.80;;
48203;SDS011;33994;50.998;5.864;2023-06-24T05:45:31;19.42;;;11.85;;
48203;SDS011;33994;50.998;5.864;2023-06-24T05:48:34;17.70;;;9.65;;
48203;SDS011;33994;50.998;5.864;2023-06-24T05:51:37;14.27;;;9.35;;
48203;SDS011;33994;50.998;5.864;2023-06-24T05:54:42;15.25;;;9.13;;
48203;SDS011;33994;50.998;5.864;2023-06-24T05:57:45;17.33;;;8.55;;
48203;SDS011;33994;50.998;5.864;2023-06-24T06:00:49;18.42;;;9.23;;
48203;SDS011;33994;50.998;5.864;2023-06-24T06:03:52;17.38;;;9.40;;
48203;SDS011;33994;50.998;5.864;2023-06-24T06:06:55;16.13;;;9.23;;
48203;SDS011;33994;50.998;5.864;2023-06-24T06:10:00;17.15;;;10.20;;
48203;SDS011;33994;50.998;5.864;2023-06-24T06:13:03;16.08;;;8.73;;
48203;SDS011;33994;50.998;5.864;2023-06-24T06:16:06;15.15;;;9.05;;
48203;SDS011;33994;50.998;5.864;2023-06-24T06:19:09;13.43;;;8.50;;
48203;SDS011;33994;50.998;5.864;2023-06-24T06:22:12;13.43;;;7.97;;
48203;SDS011;33994;50.998;5.864;2023-06-24T06:25:17;14.48;;;8.15;;
48203;SDS011;33994;50.998;5.864;2023-06-24T06:28:20;14.82;;;7.78;;
48203;SDS011;33994;50.998;5.864;2023-06-24T06:31:23;11.18;;;7.30;;
48203;SDS011;33994;50.998;5.864;2023-06-24T06:34:26;14.45;;;7.15;;
48203;SDS011;33994;50.998;5.864;2023-06-24T06:37:29;9.52;;;6.10;;
48203;SDS011;33994;50.998;5.864;2023-06-24T06:40:34;12.50;;;6.35;;
48203;SDS011;33994;50.998;5.864;2023-06-24T06:43:37;12.98;;;6.03;;
48203;SDS011;33994;50.998;5.864;2023-06-24T06:46:40;10.48;;;6.55;;
48203;SDS011;33994;50.998;5.864;2023-06-24T06:49:43;9.27;;;5.90;;
48203;SDS011;33994;50.998;5.864;2023-06-24T06:52:47;8.98;;;5.82;;
48203;SDS011;33994;50.998;5.864;2023-06-24T06:55:51;9.63;;;5.30;;
48203;SDS011;33994;50.998;5.864;2023-06-24T06:58:54;7.75;;;4.95;;
48203;SDS011;33994;50.998;5.864;2023-06-24T07:01:57;9.57;;;5.18;;
48203;SDS011;33994;50.998;5.864;2023-06-24T07:05:01;6.07;;;4.43;;
48203;SDS011;33994;50.998;5.864;2023-06-24T07:08:04;6.72;;;4.20;;
48203;SDS011;33994;50.998;5.864;2023-06-24T07:11:09;5.82;;;3.72;;
48203;SDS011;33994;50.998;5.864;2023-06-24T07:14:12;6.10;;;3.58;;
48203;SDS011;33994;50.998;5.864;2023-06-24T07:17:16;8.07;;;4.00;;
48203;SDS011;33994;50.998;5.864;2023-06-24T07:20:19;5.97;;;3.33;;
48203;SDS011;33994;50.998;5.864;2023-06-24T07:23:22;6.60;;;3.45;;
48203;SDS011;33994;50.998;5.864;2023-06-24T07:26:27;5.78;;;3.60;;
48203;SDS011;33994;50.998;5.864;2023-06-24T07:29:30;5.40;;;3.40;;
48203;SDS011;33994;50.998;5.864;2023-06-24T07:32:34;7.00;;;3.40;;
48203;SDS011;33994;50.998;5.864;2023-06-24T07:35:37;5.78;;;3.28;;
48203;SDS011;33994;50.998;5.864;2023-06-24T07:38:40;4.25;;;2.78;;
48203;SDS011;33994;50.998;5.864;2023-06-24T07:41:44;4.07;;;2.85;;
48203;SDS011;33994;50.998;5.864;2023-06-24T07:44:48;3.78;;;3.08;;
48203;SDS011;33994;50.998;5.864;2023-06-24T07:47:51;2.88;;;2.33;;
48203;SDS011;33994;50.998;5.864;2023-06-24T07:50:55;3.90;;;2.50;;
48203;SDS011;33994;50.998;5.864;2023-06-24T07:53:58;7.72;;;2.67;;
48203;SDS011;33994;50.998;5.864;2023-06-24T07:57:03;4.43;;;2.40;;
48203;SDS011;33994;50.998;5.864;2023-06-24T08:00:07;9.38;;;2.97;;
48203;SDS011;33994;50.998;5.864;2023-06-24T08:03:11;4.05;;;2.10;;
48203;SDS011;33994;50.998;5.864;2023-06-24T08:06:14;3.22;;;2.55;;
48203;SDS011;33994;50.998;5.864;2023-06-24T08:09:17;2.38;;;2.10;;
48203;SDS011;33994;50.998;5.864;2023-06-24T08:12:21;2.97;;;2.00;;
48203;SDS011;33994;50.998;5.864;2023-06-24T08:15:25;3.17;;;2.33;;
48203;SDS011;33994;50.998;5.864;2023-06-24T08:18:28;4.85;;;2.40;;
48203;SDS011;33994;50.998;5.864;2023-06-24T08:21:31;3.70;;;2.20;;
48203;SDS011;33994;50.998;5.864;2023-06-24T08:24:34;3.50;;;2.28;;
48203;SDS011;33994;50.998;5.864;2023-06-24T08:27:40;3.13;;;2.20;;
48203;SDS011;33994;50.998;5.864;2023-06-24T08:30:43;3.30;;;2.45;;
48203;SDS011;33994;50.998;5.864;2023-06-24T08:33:46;3.95;;;2.50;;
48203;SDS011;33994;50.998;5.864;2023-06-24T08:36:49;3.67;;;2.20;;
48203;SDS011;33994;50.998;5.864;2023-06-24T08:39:52;7.15;;;2.67;;
48203;SDS011;33994;50.998;5.864;2023-06-24T08:42:57;5.18;;;2.42;;
48203;SDS011;33994;50.998;5.864;2023-06-24T08:46:00;5.35;;;2.58;;
48203;SDS011;33994;50.998;5.864;2023-06-24T08:49:06;6.25;;;2.28;;
48203;SDS011;33994;50.998;5.864;2023-06-24T08:52:19;2.97;;;1.95;;
48203;SDS011;33994;50.998;5.864;2023-06-24T08:55:23;5.55;;;2.45;;
48203;SDS011;33994;50.998;5.864;2023-06-24T08:58:32;6.43;;;2.25;;
48203;SDS011;33994;50.998;5.864;2023-06-24T09:01:36;3.13;;;1.73;;
48203;SDS011;33994;50.998;5.864;2023-06-24T09:04:40;6.60;;;2.30;;
48203;SDS011;33994;50.998;5.864;2023-06-24T09:07:43;3.47;;;2.40;;
48203;SDS011;33994;50.998;5.864;2023-06-24T09:10:46;3.75;;;2.33;;
48203;SDS011;33994;50.998;5.864;2023-06-24T09:13:57;6.50;;;2.58;;
48203;SDS011;33994;50.998;5.864;2023-06-24T09:17:01;5.65;;;2.40;;
48203;SDS011;33994;50.998;5.864;2023-06-24T09:20:04;3.85;;;1.98;;
48203;SDS011;33994;50.998;5.864;2023-06-24T09:23:08;3.83;;;2.35;;
48203;SDS011;33994;50.998;5.864;2023-06-24T09:26:11;4.38;;;2.22;;
48203;SDS011;33994;50.998;5.864;2023-06-24T09:29:16;4.35;;;2.13;;
48203;SDS011;33994;50.998;5.864;2023-06-24T09:32:19;2.80;;;2.25;;
48203;SDS011;33994;50.998;5.864;2023-06-24T09:35:23;3.10;;;2.20;;
48203;SDS011;33994;50.998;5.864;2023-06-24T09:38:31;4.50;;;2.42;;
48203;SDS011;33994;50.998;5.864;2023-06-24T09:41:35;3.50;;;2.20;;
48203;SDS011;33994;50.998;5.864;2023-06-24T09:44:40;3.15;;;2.00;;
48203;SDS011;33994;50.998;5.864;2023-06-24T09:47:43;3.70;;;2.28;;
48203;SDS011;33994;50.998;5.864;2023-06-24T09:50:46;5.68;;;2.28;;
48203;SDS011;33994;50.998;5.864;2023-06-24T09:53:50;5.72;;;2.10;;
48203;SDS011;33994;50.998;5.864;2023-06-24T09:56:57;2.45;;;1.80;;
48203;SDS011;33994;50.998;5.864;2023-06-24T10:00:06;3.90;;;2.13;;
48203;SDS011;33994;50.998;5.864;2023-06-24T10:03:11;2.72;;;1.73;;
48203;SDS011;33994;50.998;5.864;2023-06-24T10:06:15;3.47;;;1.80;;
48203;SDS011;33994;50.998;5.864;2023-06-24T10:09:18;2.67;;;1.63;;
48203;SDS011;33994;50.998;5.864;2023-06-24T10:12:21;4.65;;;2.20;;
48203;SDS011;33994;50.998;5.864;2023-06-24T10:15:26;5.20;;;2.10;;
48203;SDS011;33994;50.998;5.864;2023-06-24T10:18:32;3.67;;;2.20;;
48203;SDS011;33994;50.998;5.864;2023-06-24T10:21:45;2.30;;;1.67;;
48203;SDS011;33994;50.998;5.864;2023-06-24T10:24:49;2.95;;;2.00;;
48203;SDS011;33994;50.998;5.864;2023-06-24T10:27:53;2.90;;;2.00;;
48203;SDS011;33994;50.998;5.864;2023-06-24T10:30:58;4.65;;;1.83;;
48203;SDS011;33994;50.998;5.864;2023-06-24T10:34:02;2.95;;;1.80;;
48203;SDS011;33994;50.998;5.864;2023-06-24T10:37:08;3.15;;;1.80;;
48203;SDS011;33994;50.998;5.864;2023-06-24T10:40:13;4.70;;;2.00;;
48203;SDS011;33994;50.998;5.864;2023-06-24T10:43:38;3.33;;;2.00;;
48203;SDS011;33994;50.998;5.864;2023-06-24T10:46:43;4.15;;;1.73;;
48203;SDS011;33994;50.998;5.864;2023-06-24T10:49:56;2.83;;;2.00;;
48203;SDS011;33994;50.998;5.864;2023-06-24T10:52:59;2.67;;;1.73;;
48203;SDS011;33994;50.998;5.864;2023-06-24T10:56:03;3.00;;;2.20;;
48203;SDS011;33994;50.998;5.864;2023-06-24T10:59:07;4.78;;;1.80;;
48203;SDS011;33994;50.998;5.864;2023-06-24T11:02:14;2.42;;;1.50;;
48203;SDS011;33994;50.998;5.864;2023-06-24T11:05:18;4.43;;;1.73;;
48203;SDS011;33994;50.998;5.864;2023-06-24T11:08:21;3.22;;;1.70;;
48203;SDS011;33994;50.998;5.864;2023-06-24T11:11:24;2.67;;;1.70;;
48203;SDS011;33994;50.998;5.864;2023-06-24T11:14:28;4.05;;;1.67;;
48203;SDS011;33994;50.998;5.864;2023-06-24T11:17:33;3.10;;;1.80;;
48203;SDS011;33994;50.998;5.864;2023-06-24T11:20:36;4.60;;;1.60;;
48203;SDS011;33994;50.998;5.864;2023-06-24T11:23:41;3.15;;;1.30;;
48203;SDS011;33994;50.998;5.864;2023-06-24T11:26:45;2.42;;;1.83;;
48203;SDS011;33994;50.998;5.864;2023-06-24T11:29:48;3.40;;;1.80;;
48203;SDS011;33994;50.998;5.864;2023-06-24T11:32:54;2.15;;;1.58;;
48203;SDS011;33994;50.998;5.864;2023-06-24T11:35:57;2.42;;;1.75;;
48203;SDS011;33994;50.998;5.864;2023-06-24T11:39:01;2.45;;;1.50;;
48203;SDS011;33994;50.998;5.864;2023-06-24T11:42:05;3.08;;;1.75;;
48203;SDS011;33994;50.998;5.864;2023-06-24T11:45:10;2.40;;;1.58;;
48203;SDS011;33994;50.998;5.864;2023-06-24T11:48:15;1.73;;;1.40;;
48203;SDS011;33994;50.998;5.864;2023-06-24T11:51:18;3.63;;;1.55;;
48203;SDS011;33994;50.998;5.864;2023-06-24T11:54:22;2.10;;;1.70;;
48203;SDS011;33994;50.998;5.864;2023-06-24T12:00:49;2.63;;;1.40;;
48203;SDS011;33994;50.998;5.864;2023-06-24T12:03:54;2.17;;;1.50;;
48203;SDS011;33994;50.998;5.864;2023-06-24T12:06:57;3.72;;;1.85;;
48203;SDS011;33994;50.998;5.864;2023-06-24T12:10:01;3.63;;;1.67;;
48203;SDS011;33994;50.998;5.864;2023-06-24T12:13:05;2.45;;;1.77;;
48203;SDS011;33994;50.998;5.864;2023-06-24T12:16:08;2.28;;;1.38;;
48203;SDS011;33994;50.998;5.864;2023-06-24T12:19:13;4.38;;;2.13;;
48203;SDS011;33994;50.998;5.864;2023-06-24T12:22:16;3.00;;;1.65;;
48203;SDS011;33994;50.998;5.864;2023-06-24T12:25:19;3.55;;;1.30;;
48203;SDS011;33994;50.998;5.864;2023-06-24T12:28:22;2.25;;;1.58;;
48203;SDS011;33994;50.998;5.864;2023-06-24T12:31:25;5.47;;;1.65;;
48203;SDS011;33994;50.998;5.864;2023-06-24T12:34:30;2.20;;;1.50;;
48203;SDS011;33994;50.998;5.864;2023-06-24T12:37:33;4.65;;;1.70;;
48203;SDS011;33994;50.998;5.864;2023-06-24T12:40:36;2.35;;;1.58;;
48203;SDS011;33994;50.998;5.864;2023-06-24T12:43:40;2.85;;;1.88;;
48203;SDS011;33994;50.998;5.864;2023-06-24T12:46:43;2.30;;;1.60;;
48203;SDS011;33994;50.998;5.864;2023-06-24T12:49:47;2.22;;;1.50;;
48203;SDS011;33994;50.998;5.864;2023-06-24T12:52:51;3.92;;;1.90;;
48203;SDS011;33994;50.998;5.864;2023-06-24T12:55:54;2.05;;;1.55;;
48203;SDS011;33994;50.998;5.864;2023-06-24T12:58:57;3.25;;;1.67;;
48203;SDS011;33994;50.998;5.864;2023-06-24T13:02:01;3.00;;;1.70;;
48203;SDS011;33994;50.998;5.864;2023-06-24T13:05:06;2.60;;;1.65;;
48203;SDS011;33994;50.998;5.864;2023-06-24T13:08:09;3.22;;;1.88;;
48203;SDS011;33994;50.998;5.864;2023-06-24T13:11:12;3.47;;;1.65;;
48203;SDS011;33994;50.998;5.864;2023-06-24T13:14:15;2.45;;;1.48;;
48203;SDS011;33994;50.998;5.864;2023-06-24T13:17:19;3.45;;;1.60;;
48203;SDS011;33994;50.998;5.864;2023-06-24T13:20:23;2.30;;;1.70;;
48203;SDS011;33994;50.998;5.864;2023-06-24T13:23:26;4.53;;;1.75;;
48203;SDS011;33994;50.998;5.864;2023-06-24T13:26:29;3.08;;;2.25;;
48203;SDS011;33994;50.998;5.864;2023-06-24T13:29:32;2.05;;;1.52;;
48203;SDS011;33994;50.998;5.864;2023-06-24T13:32:36;4.15;;;2.08;;
48203;SDS011;33994;50.998;5.864;2023-06-24T13:35:40;2.28;;;1.60;;
48203;SDS011;33994;50.998;5.864;2023-06-24T13:38:44;3.70;;;2.17;;
48203;SDS011;33994;50.998;5.864;2023-06-24T13:41:47;4.97;;;2.20;;
48203;SDS011;33994;50.998;5.864;2023-06-24T13:44:50;2.83;;;1.83;;
48203;SDS011;33994;50.998;5.864;2023-06-24T13:47:53;2.85;;;1.88;;
48203;SDS011;33994;50.998;5.864;2023-06-24T13:50:58;3.47;;;2.10;;
48203;SDS011;33994;50.998;5.864;2023-06-24T13:54:01;3.08;;;1.90;;
48203;SDS011;33994;50.998;5.864;2023-06-24T13:57:04;4.20;;;2.00;;
48203;SDS011;33994;50.998;5.864;2023-06-24T14:00:07;3.15;;;2.25;;
48203;SDS011;33994;50.998;5.864;2023-06-24T14:03:11;3.63;;;1.75;;
48203;SDS011;33994;50.998;5.864;2023-06-24T14:06:17;5.03;;;1.98;;
48203;SDS011;33994;50.998;5.864;2023-06-24T14:09:21;5.32;;;2.25;;
48203;SDS011;33994;50.998;5.864;2023-06-24T14:12:24;2.63;;;1.80;;
48203;SDS011;33994;50.998;5.864;2023-06-24T14:15:27;5.03;;;2.15;;
48203;SDS011;33994;50.998;5.864;2023-06-24T14:18:31;2.92;;;2.00;;
48203;SDS011;33994;50.998;5.864;2023-06-24T14:21:35;5.95;;;2.00;;
48203;SDS011;33994;50.998;5.864;2023-06-24T14:24:38;2.90;;;2.00;;
48203;SDS011;33994;50.998;5.864;2023-06-24T14:27:41;4.95;;;2.08;;
48203;SDS011;33994;50.998;5.864;2023-06-24T14:30:44;3.45;;;2.28;;
48203;SDS011;33994;50.998;5.864;2023-06-24T14:33:47;3.63;;;2.13;;
48203;SDS011;33994;50.998;5.864;2023-06-24T14:36:52;4.95;;;2.38;;
48203;SDS011;33994;50.998;5.864;2023-06-24T14:39:55;3.25;;;2.00;;
48203;SDS011;33994;50.998;5.864;2023-06-24T14:42:58;3.15;;;1.90;;
48203;SDS011;33994;50.998;5.864;2023-06-24T14:46:01;3.10;;;2.13;;
48203;SDS011;33994;50.998;5.864;2023-06-24T14:49:04;4.05;;;2.28;;
48203;SDS011;33994;50.998;5.864;2023-06-24T14:52:09;2.97;;;2.03;;
48203;SDS011;33994;50.998;5.864;2023-06-24T14:55:12;2.72;;;1.88;;
48203;SDS011;33994;50.998;5.864;2023-06-24T14:58:15;3.75;;;2.00;;
48203;SDS011;33994;50.998;5.864;2023-06-24T15:01:18;5.60;;;2.58;;
48203;SDS011;33994;50.998;5.864;2023-06-24T15:04:21;3.83;;;2.28;;
48203;SDS011;33994;50.998;5.864;2023-06-24T15:07:26;3.85;;;2.53;;
48203;SDS011;33994;50.998;5.864;2023-06-24T15:10:29;2.72;;;1.90;;
48203;SDS011;33994;50.998;5.864;2023-06-24T15:13:32;4.82;;;2.50;;
48203;SDS011;33994;50.998;5.864;2023-06-24T15:16:36;4.18;;;2.60;;
48203;SDS011;33994;50.998;5.864;2023-06-24T15:19:39;5.13;;;2.28;;
48203;SDS011;33994;50.998;5.864;2023-06-24T15:22:43;7.15;;;2.30;;
48203;SDS011;33994;50.998;5.864;2023-06-24T15:25:46;3.55;;;2.35;;
48203;SDS011;33994;50.998;5.864;2023-06-24T15:28:50;2.85;;;1.83;;
48203;SDS011;33994;50.998;5.864;2023-06-24T15:31:53;2.75;;;1.77;;
48203;SDS011;33994;50.998;5.864;2023-06-24T15:34:56;3.03;;;1.95;;
48203;SDS011;33994;50.998;5.864;2023-06-24T15:38:01;3.17;;;2.15;;
48203;SDS011;33994;50.998;5.864;2023-06-24T15:41:04;3.92;;;2.50;;
48203;SDS011;33994;50.998;5.864;2023-06-24T15:44:07;3.30;;;2.35;;
48203;SDS011;33994;50.998;5.864;2023-06-24T15:47:10;3.08;;;1.83;;
48203;SDS011;33994;50.998;5.864;2023-06-24T15:50:14;2.95;;;2.28;;
48203;SDS011;33994;50.998;5.864;2023-06-24T15:53:18;3.33;;;1.98;;
48203;SDS011;33994;50.998;5.864;2023-06-24T15:56:21;3.08;;;1.70;;
48203;SDS011;33994;50.998;5.864;2023-06-24T15:59:24;3.35;;;2.03;;
48203;SDS011;33994;50.998;5.864;2023-06-24T16:02:27;3.88;;;1.98;;
48203;SDS011;33994;50.998;5.864;2023-06-24T16:05:30;3.75;;;2.20;;
48203;SDS011;33994;50.998;5.864;2023-06-24T16:08:35;5.00;;;1.95;;
48203;SDS011;33994;50.998;5.864;2023-06-24T16:11:38;3.92;;;1.85;;
48203;SDS011;33994;50.998;5.864;2023-06-24T16:14:41;3.03;;;1.92;;
48203;SDS011;33994;50.998;5.864;2023-06-24T16:17:44;4.28;;;2.00;;
48203;SDS011;33994;50.998;5.864;2023-06-24T16:20:47;4.15;;;2.25;;
48203;SDS011;33994;50.998;5.864;2023-06-24T16:23:52;3.10;;;2.05;;
48203;SDS011;33994;50.998;5.864;2023-06-24T16:26:56;3.00;;;2.00;;
48203;SDS011;33994;50.998;5.864;2023-06-24T16:29:59;4.32;;;1.95;;
48203;SDS011;33994;50.998;5.864;2023-06-24T16:33:02;3.25;;;1.80;;
48203;SDS011;33994;50.998;5.864;2023-06-24T16:36:05;2.47;;;1.83;;
48203;SDS011;33994;50.998;5.864;2023-06-24T16:39:10;3.58;;;2.22;;
48203;SDS011;33994;50.998;5.864;2023-06-24T16:42:13;5.35;;;2.65;;
48203;SDS011;33994;50.998;5.864;2023-06-24T16:45:16;5.32;;;1.77;;
48203;SDS011;33994;50.998;5.864;2023-06-24T16:48:19;3.33;;;1.83;;
48203;SDS011;33994;50.998;5.864;2023-06-24T16:51:22;3.85;;;2.20;;
48203;SDS011;33994;50.998;5.864;2023-06-24T16:54:27;2.80;;;2.08;;
48203;SDS011;33994;50.998;5.864;2023-06-24T16:57:30;2.42;;;1.83;;
48203;SDS011;33994;50.998;5.864;2023-06-24T17:00:33;9.13;;;2.08;;
48203;SDS011;33994;50.998;5.864;2023-06-24T17:03:37;3.40;;;2.45;;
48203;SDS011;33994;50.998;5.864;2023-06-24T17:06:39;5.90;;;2.97;;
48203;SDS011;33994;50.998;5.864;2023-06-24T17:09:44;3.15;;;2.25;;
48203;SDS011;33994;50.998;5.864;2023-06-24T17:12:47;4.03;;;2.38;;
48203;SDS011;33994;50.998;5.864;2023-06-24T17:15:50;4.15;;;1.90;;
48203;SDS011;33994;50.998;5.864;2023-06-24T17:18:53;6.47;;;3.88;;
48203;SDS011;33994;50.998;5.864;2023-06-24T17:21:57;3.95;;;2.40;;
48203;SDS011;33994;50.998;5.864;2023-06-24T17:25:01;8.40;;;2.20;;
48203;SDS011;33994;50.998;5.864;2023-06-24T17:28:05;5.15;;;2.35;;
48203;SDS011;33994;50.998;5.864;2023-06-24T17:31:07;8.68;;;3.13;;
48203;SDS011;33994;50.998;5.864;2023-06-24T17:34:11;4.68;;;2.40;;
48203;SDS011;33994;50.998;5.864;2023-06-24T17:37:14;4.32;;;2.60;;
48203;SDS011;33994;50.998;5.864;2023-06-24T17:40:20;6.50;;;2.15;;
48203;SDS011;33994;50.998;5.864;2023-06-24T17:43:23;3.85;;;2.30;;
48203;SDS011;33994;50.998;5.864;2023-06-24T17:46:26;2.67;;;1.98;;
48203;SDS011;33994;50.998;5.864;2023-06-24T17:49:29;3.22;;;2.13;;
48203;SDS011;33994;50.998;5.864;2023-06-24T17:52:32;4.10;;;2.63;;
48203;SDS011;33994;50.998;5.864;2023-06-24T17:55:37;4.30;;;2.33;;
48203;SDS011;33994;50.998;5.864;2023-06-24T17:58:40;3.13;;;1.95;;
48203;SDS011;33994;50.998;5.864;2023-06-24T18:01:43;2.63;;;2.10;;
48203;SDS011;33994;50.998;5.864;2023-06-24T18:04:47;3.95;;;1.90;;
48203;SDS011;33994;50.998;5.864;2023-06-24T18:07:50;2.63;;;2.00;;
48203;SDS011;33994;50.998;5.864;2023-06-24T18:10:55;5.30;;;2.03;;
48203;SDS011;33994;50.998;5.864;2023-06-24T18:13:58;5.68;;;2.78;;
48203;SDS011;33994;50.998;5.864;2023-06-24T18:17:01;3.05;;;2.17;;
48203;SDS011;33994;50.998;5.864;2023-06-24T18:20:05;4.07;;;2.50;;
48203;SDS011;33994;50.998;5.864;2023-06-24T18:23:09;3.70;;;2.10;;
48203;SDS011;33994;50.998;5.864;2023-06-24T18:26:14;4.07;;;2.30;;